sensor_id;sensor_type;location;lat;lon;timestamp;P1;durP1;ratioP1;P2;durP2;ratioP2
62543;SDS011;48597;49.030;1.822;2022-08-21T00:00:15;4.18;;;2.30;;
62543;SDS011;48597;49.030;1.822;2022-08-21T00:02:46;3.25;;;2.10;;
62543;SDS011;48597;49.030;1.822;2022-08-21T00:05:15;3.80;;;2.15;;
62543;SDS011;48597;49.030;1.822;2022-08-21T00:07:41;4.28;;;2.20;;
62543;SDS011;48597;49.030;1.822;2022-08-21T00:10:06;2.90;;;2.10;;
62543;SDS011;48597;49.030;1.822;2022-08-21T00:12:32;3.63;;;2.13;;
62543;SDS011;48597;49.030;1.822;2022-08-21T00:14:58;4.82;;;2.20;;
62543;SDS011;48597;49.030;1.822;2022-08-21T00:17:24;3.42;;;2.03;;
62543;SDS011;48597;49.030;1.822;2022-08-21T00:19:49;3.53;;;2.33;;
62543;SDS011;48597;49.030;1.822;2022-08-21T00:22:15;4.57;;;2.47;;
62543;SDS011;48597;49.030;1.822;2022-08-21T00:24:40;2.80;;;1.90;;
62543;SDS011;48597;49.030;1.822;2022-08-21T00:27:06;4.30;;;2.33;;
62543;SDS011;48597;49.030;1.822;2022-08-21T00:29:31;2.97;;;1.98;;
62543;SDS011;48597;49.030;1.822;2022-08-21T00:31:56;3.08;;;2.00;;
62543;SDS011;48597;49.030;1.822;2022-08-21T00:34:22;3.45;;;2.20;;
62543;SDS011;48597;49.030;1.822;2022-08-21T00:36:47;5.32;;;2.38;;
62543;SDS011;48597;49.030;1.822;2022-08-21T00:39:13;3.40;;;2.08;;
62543;SDS011;48597;49.030;1.822;2022-08-21T00:41:38;5.03;;;2.10;;
62543;SDS011;48597;49.030;1.822;2022-08-21T00:44:05;3.35;;;2.17;;
62543;SDS011;48597;49.030;1.822;2022-08-21T00:46:32;2.30;;;2.00;;
62543;SDS011;48597;49.030;1.822;2022-08-21T00:48:57;3.90;;;2.10;;
62543;SDS011;48597;49.030;1.822;2022-08-21T00:51:24;2.38;;;2.05;;
62543;SDS011;48597;49.030;1.822;2022-08-21T00:53:54;3.58;;;2.10;;
62543;SDS011;48597;49.030;1.822;2022-08-21T00:56:22;3.15;;;2.20;;
62543;SDS011;48597;49.030;1.822;2022-08-21T00:58:49;5.63;;;2.38;;
62543;SDS011;48597;49.030;1.822;2022-08-21T01:01:16;3.05;;;1.95;;
62543;SDS011;48597;49.030;1.822;2022-08-21T01:03:42;2.47;;;1.75;;
62543;SDS011;48597;49.030;1.822;2022-08-21T01:06:08;3.78;;;1.95;;
62543;SDS011;48597;49.030;1.822;2022-08-21T01:08:34;3.05;;;2.05;;
62543;SDS011;48597;49.030;1.822;2022-08-21T01:10:59;3.75;;;2.00;;
62543;SDS011;48597;49.030;1.822;2022-08-21T01:13:27;3.40;;;1.90;;
62543;SDS011;48597;49.030;1.822;2022-08-21T01:15:56;2.67;;;1.70;;
62543;SDS011;48597;49.030;1.822;2022-08-21T01:18:24;3.22;;;1.88;;
62543;SDS011;48597;49.030;1.822;2022-08-21T01:21:02;3.50;;;1.90;;
62543;SDS011;48597;49.030;1.822;2022-08-21T01:23:30;2.22;;;1.90;;
62543;SDS011;48597;49.030;1.822;2022-08-21T01:25:56;3.40;;;1.90;;
62543;SDS011;48597;49.030;1.822;2022-08-21T01:28:21;2.85;;;1.70;;
62543;SDS011;48597;49.030;1.822;2022-08-21T01:30:47;3.75;;;2.03;;
62543;SDS011;48597;49.030;1.822;2022-08-21T01:33:15;3.50;;;1.90;;
62543;SDS011;48597;49.030;1.822;2022-08-21T01:35:43;3.22;;;2.03;;
62543;SDS011;48597;49.030;1.822;2022-08-21T01:38:08;3.75;;;1.98;;
62543;SDS011;48597;49.030;1.822;2022-08-21T01:40:34;2.63;;;1.85;;
62543;SDS011;48597;49.030;1.822;2022-08-21T01:42:59;2.55;;;1.80;;
62543;SDS011;48597;49.030;1.822;2022-08-21T01:45:25;2.72;;;1.70;;
62543;SDS011;48597;49.030;1.822;2022-08-21T01:47:51;3.65;;;1.95;;
62543;SDS011;48597;49.030;1.822;2022-08-21T01:50:17;3.42;;;1.80;;
62543;SDS011;48597;49.030;1.822;2022-08-21T01:52:44;2.88;;;2.00;;
62543;SDS011;48597;49.030;1.822;2022-08-21T01:55:10;3.15;;;1.83;;
62543;SDS011;48597;49.030;1.822;2022-08-21T01:57:40;2.95;;;1.95;;
62543;SDS011;48597;49.030;1.822;2022-08-21T02:00:07;3.97;;;1.80;;
62543;SDS011;48597;49.030;1.822;2022-08-21T02:02:36;3.38;;;1.80;;
62543;SDS011;48597;49.030;1.822;2022-08-21T02:05:02;2.78;;;1.85;;
62543;SDS011;48597;49.030;1.822;2022-08-21T02:07:35;3.28;;;1.92;;
62543;SDS011;48597;49.030;1.822;2022-08-21T02:10:02;2.78;;;1.83;;
62543;SDS011;48597;49.030;1.822;2022-08-21T02:12:29;3.72;;;1.88;;
62543;SDS011;48597;49.030;1.822;2022-08-21T02:14:54;3.10;;;1.83;;
62543;SDS011;48597;49.030;1.822;2022-08-21T02:17:20;2.90;;;1.90;;
62543;SDS011;48597;49.030;1.822;2022-08-21T02:19:46;2.65;;;1.70;;
62543;SDS011;48597;49.030;1.822;2022-08-21T02:22:11;3.30;;;1.90;;
62543;SDS011;48597;49.030;1.822;2022-08-21T02:24:37;4.25;;;2.20;;
62543;SDS011;48597;49.030;1.822;2022-08-21T02:27:04;2.72;;;2.10;;
62543;SDS011;48597;49.030;1.822;2022-08-21T02:29:29;2.83;;;2.15;;
62543;SDS011;48597;49.030;1.822;2022-08-21T02:31:54;2.47;;;1.90;;
62543;SDS011;48597;49.030;1.822;2022-08-21T02:34:20;3.00;;;2.10;;
62543;SDS011;48597;49.030;1.822;2022-08-21T02:36:46;3.38;;;1.90;;
62543;SDS011;48597;49.030;1.822;2022-08-21T02:39:11;3.28;;;1.90;;
62543;SDS011;48597;49.030;1.822;2022-08-21T02:41:36;3.05;;;2.17;;
62543;SDS011;48597;49.030;1.822;2022-08-21T02:44:02;2.85;;;2.22;;
62543;SDS011;48597;49.030;1.822;2022-08-21T02:46:27;2.30;;;2.00;;
62543;SDS011;48597;49.030;1.822;2022-08-21T02:48:53;2.42;;;2.03;;
62543;SDS011;48597;49.030;1.822;2022-08-21T02:51:19;2.83;;;1.88;;
62543;SDS011;48597;49.030;1.822;2022-08-21T02:53:46;3.03;;;2.10;;
62543;SDS011;48597;49.030;1.822;2022-08-21T02:56:13;3.53;;;2.00;;
62543;SDS011;48597;49.030;1.822;2022-08-21T02:58:43;3.10;;;1.90;;
62543;SDS011;48597;49.030;1.822;2022-08-21T03:01:11;2.92;;;2.00;;
62543;SDS011;48597;49.030;1.822;2022-08-21T03:03:38;2.13;;;1.85;;
62543;SDS011;48597;49.030;1.822;2022-08-21T03:06:06;3.38;;;1.98;;
62543;SDS011;48597;49.030;1.822;2022-08-21T03:08:33;3.55;;;2.03;;
62543;SDS011;48597;49.030;1.822;2022-08-21T03:10:58;3.33;;;1.80;;
62543;SDS011;48597;49.030;1.822;2022-08-21T03:13:25;3.83;;;1.95;;
62543;SDS011;48597;49.030;1.822;2022-08-21T03:15:51;4.00;;;2.10;;
62543;SDS011;48597;49.030;1.822;2022-08-21T03:18:17;3.78;;;2.10;;
62543;SDS011;48597;49.030;1.822;2022-08-21T03:20:43;3.70;;;2.25;;
62543;SDS011;48597;49.030;1.822;2022-08-21T03:23:10;4.72;;;1.90;;
62543;SDS011;48597;49.030;1.822;2022-08-21T03:25:35;3.40;;;2.00;;
62543;SDS011;48597;49.030;1.822;2022-08-21T03:28:02;2.53;;;1.70;;
62543;SDS011;48597;49.030;1.822;2022-08-21T03:30:29;2.90;;;1.85;;
62543;SDS011;48597;49.030;1.822;2022-08-21T03:32:56;3.45;;;1.80;;
62543;SDS011;48597;49.030;1.822;2022-08-21T03:35:26;2.92;;;1.80;;
62543;SDS011;48597;49.030;1.822;2022-08-21T03:37:52;3.33;;;2.10;;
62543;SDS011;48597;49.030;1.822;2022-08-21T03:40:19;3.05;;;1.85;;
62543;SDS011;48597;49.030;1.822;2022-08-21T03:42:45;2.97;;;1.90;;
62543;SDS011;48597;49.030;1.822;2022-08-21T03:45:12;2.60;;;1.83;;
62543;SDS011;48597;49.030;1.822;2022-08-21T03:47:50;4.63;;;2.00;;
62543;SDS011;48597;49.030;1.822;2022-08-21T03:50:16;3.15;;;2.22;;
62543;SDS011;48597;49.030;1.822;2022-08-21T03:52:42;2.60;;;1.70;;
62543;SDS011;48597;49.030;1.822;2022-08-21T03:55:07;3.38;;;1.90;;
62543;SDS011;48597;49.030;1.822;2022-08-21T03:57:32;2.47;;;1.73;;
62543;SDS011;48597;49.030;1.822;2022-08-21T03:59:58;2.80;;;1.85;;
62543;SDS011;48597;49.030;1.822;2022-08-21T04:02:23;3.63;;;1.98;;
62543;SDS011;48597;49.030;1.822;2022-08-21T04:04:48;3.25;;;2.30;;
62543;SDS011;48597;49.030;1.822;2022-08-21T04:07:14;2.45;;;1.90;;
62543;SDS011;48597;49.030;1.822;2022-08-21T04:09:39;3.33;;;2.10;;
62543;SDS011;48597;49.030;1.822;2022-08-21T04:12:04;3.10;;;2.03;;
62543;SDS011;48597;49.030;1.822;2022-08-21T04:14:30;3.92;;;2.00;;
62543;SDS011;48597;49.030;1.822;2022-08-21T04:16:55;2.78;;;1.88;;
62543;SDS011;48597;49.030;1.822;2022-08-21T04:19:21;3.10;;;1.77;;
62543;SDS011;48597;49.030;1.822;2022-08-21T04:21:46;3.00;;;1.90;;
62543;SDS011;48597;49.030;1.822;2022-08-21T04:24:12;4.18;;;2.10;;
62543;SDS011;48597;49.030;1.822;2022-08-21T04:26:37;2.70;;;2.03;;
62543;SDS011;48597;49.030;1.822;2022-08-21T04:29:03;4.13;;;2.05;;
62543;SDS011;48597;49.030;1.822;2022-08-21T04:31:33;2.38;;;1.90;;
62543;SDS011;48597;49.030;1.822;2022-08-21T04:33:59;2.75;;;1.83;;
62543;SDS011;48597;49.030;1.822;2022-08-21T04:36:25;2.55;;;2.10;;
62543;SDS011;48597;49.030;1.822;2022-08-21T04:38:50;4.63;;;2.00;;
62543;SDS011;48597;49.030;1.822;2022-08-21T04:41:16;3.08;;;2.20;;
62543;SDS011;48597;49.030;1.822;2022-08-21T04:43:41;5.35;;;1.90;;
62543;SDS011;48597;49.030;1.822;2022-08-21T04:46:07;4.65;;;1.80;;
62543;SDS011;48597;49.030;1.822;2022-08-21T04:48:32;2.50;;;1.95;;
62543;SDS011;48597;49.030;1.822;2022-08-21T04:51:03;2.65;;;2.03;;
62543;SDS011;48597;49.030;1.822;2022-08-21T04:56:22;3.95;;;1.83;;
62543;SDS011;48597;49.030;1.822;2022-08-21T04:59:00;2.42;;;1.98;;
62543;SDS011;48597;49.030;1.822;2022-08-21T05:01:29;3.17;;;1.70;;
62543;SDS011;48597;49.030;1.822;2022-08-21T05:03:58;2.50;;;1.80;;
62543;SDS011;48597;49.030;1.822;2022-08-21T05:06:24;2.08;;;1.80;;
62543;SDS011;48597;49.030;1.822;2022-08-21T05:08:52;2.13;;;1.77;;
62543;SDS011;48597;49.030;1.822;2022-08-21T05:11:20;2.85;;;1.98;;
62543;SDS011;48597;49.030;1.822;2022-08-21T05:13:47;2.88;;;1.83;;
62543;SDS011;48597;49.030;1.822;2022-08-21T05:16:13;3.60;;;1.80;;
62543;SDS011;48597;49.030;1.822;2022-08-21T05:18:38;3.33;;;1.90;;
62543;SDS011;48597;49.030;1.822;2022-08-21T05:21:04;2.30;;;1.85;;
62543;SDS011;48597;49.030;1.822;2022-08-21T05:23:29;2.55;;;1.83;;
62543;SDS011;48597;49.030;1.822;2022-08-21T05:25:55;3.33;;;1.85;;
62543;SDS011;48597;49.030;1.822;2022-08-21T05:28:21;5.22;;;1.98;;
62543;SDS011;48597;49.030;1.822;2022-08-21T05:30:46;2.85;;;1.90;;
62543;SDS011;48597;49.030;1.822;2022-08-21T05:33:12;3.17;;;1.55;;
62543;SDS011;48597;49.030;1.822;2022-08-21T05:35:37;3.30;;;1.67;;
62543;SDS011;48597;49.030;1.822;2022-08-21T05:38:03;3.85;;;2.20;;
62543;SDS011;48597;49.030;1.822;2022-08-21T05:40:29;3.00;;;2.03;;
62543;SDS011;48597;49.030;1.822;2022-08-21T05:42:55;3.13;;;1.85;;
62543;SDS011;48597;49.030;1.822;2022-08-21T05:45:21;3.10;;;1.80;;
62543;SDS011;48597;49.030;1.822;2022-08-21T05:47:49;3.40;;;1.80;;
62543;SDS011;48597;49.030;1.822;2022-08-21T05:50:14;2.53;;;1.83;;
62543;SDS011;48597;49.030;1.822;2022-08-21T05:52:39;3.20;;;1.92;;
62543;SDS011;48597;49.030;1.822;2022-08-21T05:55:05;3.15;;;2.03;;
62543;SDS011;48597;49.030;1.822;2022-08-21T05:57:30;3.00;;;1.80;;
62543;SDS011;48597;49.030;1.822;2022-08-21T05:59:56;3.60;;;2.20;;
62543;SDS011;48597;49.030;1.822;2022-08-21T06:02:21;4.45;;;2.15;;
62543;SDS011;48597;49.030;1.822;2022-08-21T06:04:47;3.03;;;2.00;;
62543;SDS011;48597;49.030;1.822;2022-08-21T06:07:13;4.40;;;2.20;;
62543;SDS011;48597;49.030;1.822;2022-08-21T06:09:39;4.03;;;1.90;;
62543;SDS011;48597;49.030;1.822;2022-08-21T06:12:05;5.38;;;2.40;;
62543;SDS011;48597;49.030;1.822;2022-08-21T06:14:35;2.85;;;2.00;;
62543;SDS011;48597;49.030;1.822;2022-08-21T06:17:05;3.25;;;2.08;;
62543;SDS011;48597;49.030;1.822;2022-08-21T06:19:32;3.70;;;1.75;;
62543;SDS011;48597;49.030;1.822;2022-08-21T06:21:58;3.83;;;1.85;;
62543;SDS011;48597;49.030;1.822;2022-08-21T06:24:23;3.92;;;1.92;;
62543;SDS011;48597;49.030;1.822;2022-08-21T06:26:49;3.47;;;2.00;;
62543;SDS011;48597;49.030;1.822;2022-08-21T06:29:14;4.25;;;2.10;;
62543;SDS011;48597;49.030;1.822;2022-08-21T06:31:44;3.55;;;1.75;;
62543;SDS011;48597;49.030;1.822;2022-08-21T06:34:10;4.00;;;2.00;;
62543;SDS011;48597;49.030;1.822;2022-08-21T06:36:35;3.35;;;1.90;;
62543;SDS011;48597;49.030;1.822;2022-08-21T06:39:01;2.75;;;1.88;;
62543;SDS011;48597;49.030;1.822;2022-08-21T06:41:26;4.35;;;1.88;;
62543;SDS011;48597;49.030;1.822;2022-08-21T06:43:52;4.47;;;2.35;;
62543;SDS011;48597;49.030;1.822;2022-08-21T06:46:19;3.95;;;1.98;;
62543;SDS011;48597;49.030;1.822;2022-08-21T06:48:45;3.75;;;2.10;;
62543;SDS011;48597;49.030;1.822;2022-08-21T06:51:10;3.45;;;1.85;;
62543;SDS011;48597;49.030;1.822;2022-08-21T06:53:36;4.60;;;2.10;;
62543;SDS011;48597;49.030;1.822;2022-08-21T06:56:01;3.60;;;1.77;;
62543;SDS011;48597;49.030;1.822;2022-08-21T06:58:27;3.38;;;1.83;;
62543;SDS011;48597;49.030;1.822;2022-08-21T07:00:53;3.35;;;1.90;;
62543;SDS011;48597;49.030;1.822;2022-08-21T07:03:23;3.20;;;1.70;;
62543;SDS011;48597;49.030;1.822;2022-08-21T07:05:50;5.13;;;2.03;;
62543;SDS011;48597;49.030;1.822;2022-08-21T07:08:16;4.40;;;2.03;;
62543;SDS011;48597;49.030;1.822;2022-08-21T07:10:42;4.47;;;2.00;;
62543;SDS011;48597;49.030;1.822;2022-08-21T07:13:07;4.13;;;1.92;;
62543;SDS011;48597;49.030;1.822;2022-08-21T07:15:33;3.90;;;1.83;;
62543;SDS011;48597;49.030;1.822;2022-08-21T07:17:59;4.72;;;2.00;;
62543;SDS011;48597;49.030;1.822;2022-08-21T07:20:25;3.20;;;1.85;;
62543;SDS011;48597;49.030;1.822;2022-08-21T07:22:51;4.63;;;1.70;;
62543;SDS011;48597;49.030;1.822;2022-08-21T07:25:17;4.38;;;1.98;;
62543;SDS011;48597;49.030;1.822;2022-08-21T07:27:42;4.60;;;2.22;;
62543;SDS011;48597;49.030;1.822;2022-08-21T07:30:08;3.83;;;1.85;;
62543;SDS011;48597;49.030;1.822;2022-08-21T07:32:33;3.92;;;2.15;;
62543;SDS011;48597;49.030;1.822;2022-08-21T07:34:59;4.75;;;2.30;;
62543;SDS011;48597;49.030;1.822;2022-08-21T07:37:24;5.18;;;1.90;;
62543;SDS011;48597;49.030;1.822;2022-08-21T07:39:50;4.93;;;2.20;;
62543;SDS011;48597;49.030;1.822;2022-08-21T07:42:16;4.32;;;1.90;;
62543;SDS011;48597;49.030;1.822;2022-08-21T07:44:42;4.72;;;2.17;;
62543;SDS011;48597;49.030;1.822;2022-08-21T07:47:08;3.88;;;2.33;;
62543;SDS011;48597;49.030;1.822;2022-08-21T07:49:33;3.92;;;1.83;;
62543;SDS011;48597;49.030;1.822;2022-08-21T07:51:59;3.97;;;1.88;;
62543;SDS011;48597;49.030;1.822;2022-08-21T07:54:24;4.80;;;1.92;;
62543;SDS011;48597;49.030;1.822;2022-08-21T07:56:50;3.63;;;1.90;;
62543;SDS011;48597;49.030;1.822;2022-08-21T07:59:16;4.60;;;2.00;;
62543;SDS011;48597;49.030;1.822;2022-08-21T08:01:41;3.08;;;1.67;;
62543;SDS011;48597;49.030;1.822;2022-08-21T08:04:06;4.97;;;2.00;;
62543;SDS011;48597;49.030;1.822;2022-08-21T08:06:32;4.60;;;1.75;;
62543;SDS011;48597;49.030;1.822;2022-08-21T08:08:57;4.30;;;1.92;;
62543;SDS011;48597;49.030;1.822;2022-08-21T08:11:23;3.85;;;1.90;;
62543;SDS011;48597;49.030;1.822;2022-08-21T08:13:49;3.35;;;1.88;;
62543;SDS011;48597;49.030;1.822;2022-08-21T08:16:16;3.75;;;2.00;;
62543;SDS011;48597;49.030;1.822;2022-08-21T08:18:42;5.07;;;2.30;;
62543;SDS011;48597;49.030;1.822;2022-08-21T08:21:08;4.68;;;1.80;;
62543;SDS011;48597;49.030;1.822;2022-08-21T08:23:35;5.03;;;2.22;;
62543;SDS011;48597;49.030;1.822;2022-08-21T08:26:00;4.68;;;2.00;;
62543;SDS011;48597;49.030;1.822;2022-08-21T08:28:27;4.03;;;1.92;;
62543;SDS011;48597;49.030;1.822;2022-08-21T08:30:53;4.30;;;1.60;;
62543;SDS011;48597;49.030;1.822;2022-08-21T08:33:19;3.95;;;1.80;;
62543;SDS011;48597;49.030;1.822;2022-08-21T08:35:46;3.88;;;2.17;;
62543;SDS011;48597;49.030;1.822;2022-08-21T08:38:13;3.67;;;1.80;;
62543;SDS011;48597;49.030;1.822;2022-08-21T08:40:55;4.65;;;1.90;;
62543;SDS011;48597;49.030;1.822;2022-08-21T08:43:32;3.40;;;1.75;;
62543;SDS011;48597;49.030;1.822;2022-08-21T08:45:58;3.38;;;1.90;;
62543;SDS011;48597;49.030;1.822;2022-08-21T08:51:15;4.00;;;2.00;;
62543;SDS011;48597;49.030;1.822;2022-08-21T08:53:54;5.85;;;2.00;;
62543;SDS011;48597;49.030;1.822;2022-08-21T08:56:28;3.85;;;1.95;;
62543;SDS011;48597;49.030;1.822;2022-08-21T08:58:57;5.88;;;2.30;;
62543;SDS011;48597;49.030;1.822;2022-08-21T09:01:26;3.95;;;1.85;;
62543;SDS011;48597;49.030;1.822;2022-08-21T09:03:52;5.90;;;2.10;;
62543;SDS011;48597;49.030;1.822;2022-08-21T09:06:35;4.63;;;1.83;;
62543;SDS011;48597;49.030;1.822;2022-08-21T09:09:22;4.13;;;1.95;;
62543;SDS011;48597;49.030;1.822;2022-08-21T09:12:04;4.20;;;2.15;;
62543;SDS011;48597;49.030;1.822;2022-08-21T09:18:01;3.65;;;1.80;;
62543;SDS011;48597;49.030;1.822;2022-08-21T09:26:14;3.10;;;1.80;;
62543;SDS011;48597;49.030;1.822;2022-08-21T09:28:45;4.95;;;2.00;;
62543;SDS011;48597;49.030;1.822;2022-08-21T09:31:29;3.42;;;1.75;;
62543;SDS011;48597;49.030;1.822;2022-08-21T09:34:04;4.55;;;1.52;;
62543;SDS011;48597;49.030;1.822;2022-08-21T09:36:41;1.98;;;1.38;;
62543;SDS011;48597;49.030;1.822;2022-08-21T09:39:10;5.18;;;2.15;;
62543;SDS011;48597;49.030;1.822;2022-08-21T09:41:38;3.17;;;2.00;;
62543;SDS011;48597;49.030;1.822;2022-08-21T09:44:05;3.83;;;1.80;;
62543;SDS011;48597;49.030;1.822;2022-08-21T09:46:33;6.97;;;2.10;;
62543;SDS011;48597;49.030;1.822;2022-08-21T09:48:59;7.32;;;2.30;;
62543;SDS011;48597;49.030;1.822;2022-08-21T09:51:30;6.30;;;2.08;;
62543;SDS011;48597;49.030;1.822;2022-08-21T09:56:36;5.40;;;2.40;;
62543;SDS011;48597;49.030;1.822;2022-08-21T09:59:43;6.57;;;2.22;;
62543;SDS011;48597;49.030;1.822;2022-08-21T10:04:57;6.70;;;2.20;;
62543;SDS011;48597;49.030;1.822;2022-08-21T10:07:30;5.47;;;1.90;;
62543;SDS011;48597;49.030;1.822;2022-08-21T10:10:00;3.85;;;2.50;;
62543;SDS011;48597;49.030;1.822;2022-08-21T10:32:00;6.40;;;2.45;;
62543;SDS011;48597;49.030;1.822;2022-08-21T10:40:06;4.50;;;2.15;;
62543;SDS011;48597;49.030;1.822;2022-08-21T10:45:38;5.28;;;2.00;;
62543;SDS011;48597;49.030;1.822;2022-08-21T10:48:16;6.85;;;2.40;;
62543;SDS011;48597;49.030;1.822;2022-08-21T10:50:55;5.75;;;2.60;;
62543;SDS011;48597;49.030;1.822;2022-08-21T10:53:49;8.02;;;2.90;;
62543;SDS011;48597;49.030;1.822;2022-08-21T10:56:22;7.85;;;2.72;;
62543;SDS011;48597;49.030;1.822;2022-08-21T11:01:54;4.80;;;1.98;;
62543;SDS011;48597;49.030;1.822;2022-08-21T11:07:22;6.22;;;2.22;;
62543;SDS011;48597;49.030;1.822;2022-08-21T11:09:57;5.63;;;2.38;;
62543;SDS011;48597;49.030;1.822;2022-08-21T11:15:31;7.22;;;2.40;;
62543;SDS011;48597;49.030;1.822;2022-08-21T11:18:10;6.20;;;2.50;;
62543;SDS011;48597;49.030;1.822;2022-08-21T11:20:59;6.25;;;2.55;;
62543;SDS011;48597;49.030;1.822;2022-08-21T11:23:42;7.43;;;2.38;;
62543;SDS011;48597;49.030;1.822;2022-08-21T11:26:13;4.97;;;2.15;;
62543;SDS011;48597;49.030;1.822;2022-08-21T11:28:58;6.63;;;2.40;;
62543;SDS011;48597;49.030;1.822;2022-08-21T11:41:22;6.40;;;2.40;;
62543;SDS011;48597;49.030;1.822;2022-08-21T11:43:41;4.40;;;2.13;;
62543;SDS011;48597;49.030;1.822;2022-08-21T11:46:20;4.13;;;2.13;;
62543;SDS011;48597;49.030;1.822;2022-08-21T11:49:23;5.88;;;2.30;;
62543;SDS011;48597;49.030;1.822;2022-08-21T11:52:03;4.47;;;2.38;;
62543;SDS011;48597;49.030;1.822;2022-08-21T11:57:35;3.75;;;1.80;;
62543;SDS011;48597;49.030;1.822;2022-08-21T12:02:58;2.45;;;1.67;;
62543;SDS011;48597;49.030;1.822;2022-08-21T12:05:34;4.03;;;1.90;;
62543;SDS011;48597;49.030;1.822;2022-08-21T12:10:37;2.22;;;1.65;;
62543;SDS011;48597;49.030;1.822;2022-08-21T12:13:09;5.28;;;1.88;;
62543;SDS011;48597;49.030;1.822;2022-08-21T12:15:47;2.60;;;1.60;;
62543;SDS011;48597;49.030;1.822;2022-08-21T12:18:23;3.35;;;1.83;;
62543;SDS011;48597;49.030;1.822;2022-08-21T12:26:20;3.20;;;1.80;;
62543;SDS011;48597;49.030;1.822;2022-08-21T12:28:51;5.97;;;1.90;;
62543;SDS011;48597;49.030;1.822;2022-08-21T12:31:27;2.33;;;1.50;;
62543;SDS011;48597;49.030;1.822;2022-08-21T12:34:00;3.10;;;1.50;;
62543;SDS011;48597;49.030;1.822;2022-08-21T12:36:44;2.92;;;1.55;;
62543;SDS011;48597;49.030;1.822;2022-08-21T12:39:21;4.07;;;1.30;;
62543;SDS011;48597;49.030;1.822;2022-08-21T12:44:22;3.92;;;1.50;;
62543;SDS011;48597;49.030;1.822;2022-08-21T12:46:58;3.67;;;1.73;;
62543;SDS011;48597;49.030;1.822;2022-08-21T12:52:14;3.15;;;1.83;;
62543;SDS011;48597;49.030;1.822;2022-08-21T12:54:45;4.35;;;1.70;;
62543;SDS011;48597;49.030;1.822;2022-08-21T12:57:24;4.43;;;1.55;;
62543;SDS011;48597;49.030;1.822;2022-08-21T12:59:55;2.10;;;1.57;;
62543;SDS011;48597;49.030;1.822;2022-08-21T13:02:29;2.78;;;1.20;;
62543;SDS011;48597;49.030;1.822;2022-08-21T13:04:58;2.90;;;1.35;;
62543;SDS011;48597;49.030;1.822;2022-08-21T13:07:29;2.67;;;1.60;;
62543;SDS011;48597;49.030;1.822;2022-08-21T13:10:01;2.55;;;1.33;;
62543;SDS011;48597;49.030;1.822;2022-08-21T13:12:31;1.83;;;1.40;;
62543;SDS011;48597;49.030;1.822;2022-08-21T13:14:58;3.00;;;1.48;;
62543;SDS011;48597;49.030;1.822;2022-08-21T13:17:29;2.83;;;1.20;;
62543;SDS011;48597;49.030;1.822;2022-08-21T13:20:00;1.85;;;1.10;;
62543;SDS011;48597;49.030;1.822;2022-08-21T13:22:28;3.78;;;1.48;;
62543;SDS011;48597;49.030;1.822;2022-08-21T13:24:55;1.83;;;1.10;;
62543;SDS011;48597;49.030;1.822;2022-08-21T13:27:27;2.45;;;1.17;;
62543;SDS011;48597;49.030;1.822;2022-08-21T13:30:06;3.10;;;1.25;;
62543;SDS011;48597;49.030;1.822;2022-08-21T13:32:43;5.07;;;1.13;;
62543;SDS011;48597;49.030;1.822;2022-08-21T13:37:44;2.05;;;0.90;;
62543;SDS011;48597;49.030;1.822;2022-08-21T13:40:17;2.05;;;1.13;;
62543;SDS011;48597;49.030;1.822;2022-08-21T13:42:45;2.92;;;1.00;;
62543;SDS011;48597;49.030;1.822;2022-08-21T13:45:13;2.78;;;1.40;;
62543;SDS011;48597;49.030;1.822;2022-08-21T13:47:47;2.45;;;1.02;;
62543;SDS011;48597;49.030;1.822;2022-08-21T13:50:13;1.38;;;0.90;;
62543;SDS011;48597;49.030;1.822;2022-08-21T13:52:48;2.40;;;1.10;;
62543;SDS011;48597;49.030;1.822;2022-08-21T13:55:20;2.47;;;0.95;;
62543;SDS011;48597;49.030;1.822;2022-08-21T13:57:46;3.35;;;1.17;;
62543;SDS011;48597;49.030;1.822;2022-08-21T14:00:13;2.05;;;0.93;;
62543;SDS011;48597;49.030;1.822;2022-08-21T14:02:44;2.25;;;1.00;;
62543;SDS011;48597;49.030;1.822;2022-08-21T14:05:18;2.50;;;1.00;;
62543;SDS011;48597;49.030;1.822;2022-08-21T14:07:47;4.00;;;1.25;;
62543;SDS011;48597;49.030;1.822;2022-08-21T14:10:16;2.50;;;1.10;;
62543;SDS011;48597;49.030;1.822;2022-08-21T14:15:16;2.15;;;0.85;;
62543;SDS011;48597;49.030;1.822;2022-08-21T14:17:44;2.92;;;1.30;;
62543;SDS011;48597;49.030;1.822;2022-08-21T14:20:11;3.63;;;1.10;;
62543;SDS011;48597;49.030;1.822;2022-08-21T14:22:54;2.45;;;1.00;;
62543;SDS011;48597;49.030;1.822;2022-08-21T14:27:58;2.07;;;1.23;;
62543;SDS011;48597;49.030;1.822;2022-08-21T14:30:39;4.68;;;1.27;;
62543;SDS011;48597;49.030;1.822;2022-08-21T14:33:10;2.67;;;1.00;;
62543;SDS011;48597;49.030;1.822;2022-08-21T14:35:42;2.95;;;1.17;;
62543;SDS011;48597;49.030;1.822;2022-08-21T14:38:17;2.00;;;1.00;;
62543;SDS011;48597;49.030;1.822;2022-08-21T14:40:46;1.35;;;1.00;;
62543;SDS011;48597;49.030;1.822;2022-08-21T14:43:14;4.03;;;1.10;;
62543;SDS011;48597;49.030;1.822;2022-08-21T14:45:40;5.47;;;1.02;;
62543;SDS011;48597;49.030;1.822;2022-08-21T14:48:06;2.40;;;1.35;;
62543;SDS011;48597;49.030;1.822;2022-08-21T14:50:32;3.28;;;1.27;;
62543;SDS011;48597;49.030;1.822;2022-08-21T14:52:58;2.05;;;0.90;;
62543;SDS011;48597;49.030;1.822;2022-08-21T14:55:24;3.10;;;1.23;;
62543;SDS011;48597;49.030;1.822;2022-08-21T14:57:50;4.72;;;1.13;;
62543;SDS011;48597;49.030;1.822;2022-08-21T15:00:19;3.88;;;1.15;;
62543;SDS011;48597;49.030;1.822;2022-08-21T15:02:47;2.17;;;1.35;;
62543;SDS011;48597;49.030;1.822;2022-08-21T15:05:13;4.18;;;1.23;;
62543;SDS011;48597;49.030;1.822;2022-08-21T15:07:39;4.25;;;1.05;;
62543;SDS011;48597;49.030;1.822;2022-08-21T15:10:05;2.70;;;1.10;;
62543;SDS011;48597;49.030;1.822;2022-08-21T15:12:32;5.88;;;1.38;;
62543;SDS011;48597;49.030;1.822;2022-08-21T15:14:57;2.92;;;1.20;;
62543;SDS011;48597;49.030;1.822;2022-08-21T15:17:23;2.67;;;1.13;;
62543;SDS011;48597;49.030;1.822;2022-08-21T15:19:48;3.35;;;1.10;;
62543;SDS011;48597;49.030;1.822;2022-08-21T15:22:14;4.40;;;1.20;;
62543;SDS011;48597;49.030;1.822;2022-08-21T15:24:39;3.05;;;1.10;;
62543;SDS011;48597;49.030;1.822;2022-08-21T15:27:06;4.03;;;1.10;;
62543;SDS011;48597;49.030;1.822;2022-08-21T15:29:33;5.43;;;1.20;;
62543;SDS011;48597;49.030;1.822;2022-08-21T15:32:00;3.33;;;0.95;;
62543;SDS011;48597;49.030;1.822;2022-08-21T15:34:29;5.03;;;1.27;;
62543;SDS011;48597;49.030;1.822;2022-08-21T15:36:56;3.53;;;0.80;;
62543;SDS011;48597;49.030;1.822;2022-08-21T15:39:22;4.28;;;1.40;;
62543;SDS011;48597;49.030;1.822;2022-08-21T15:41:48;4.00;;;1.10;;
62543;SDS011;48597;49.030;1.822;2022-08-21T15:44:14;1.45;;;1.20;;
62543;SDS011;48597;49.030;1.822;2022-08-21T15:46:40;2.47;;;1.15;;
62543;SDS011;48597;49.030;1.822;2022-08-21T15:49:07;3.20;;;0.93;;
62543;SDS011;48597;49.030;1.822;2022-08-21T15:51:32;3.00;;;1.00;;
62543;SDS011;48597;49.030;1.822;2022-08-21T15:53:58;2.20;;;1.10;;
62543;SDS011;48597;49.030;1.822;2022-08-21T15:56:25;2.13;;;1.00;;
62543;SDS011;48597;49.030;1.822;2022-08-21T15:58:53;2.20;;;1.00;;
62543;SDS011;48597;49.030;1.822;2022-08-21T16:01:25;3.08;;;1.10;;
62543;SDS011;48597;49.030;1.822;2022-08-21T16:03:52;4.13;;;1.00;;
62543;SDS011;48597;49.030;1.822;2022-08-21T16:06:18;2.28;;;0.95;;
62543;SDS011;48597;49.030;1.822;2022-08-21T16:08:44;2.72;;;0.98;;
62543;SDS011;48597;49.030;1.822;2022-08-21T16:11:10;2.25;;;1.00;;
62543;SDS011;48597;49.030;1.822;2022-08-21T16:13:40;2.45;;;0.90;;
62543;SDS011;48597;49.030;1.822;2022-08-21T16:16:12;1.83;;;1.17;;
62543;SDS011;48597;49.030;1.822;2022-08-21T16:18:42;2.53;;;1.08;;
62543;SDS011;48597;49.030;1.822;2022-08-21T16:21:08;2.53;;;1.25;;
62543;SDS011;48597;49.030;1.822;2022-08-21T16:23:34;3.75;;;0.93;;
62543;SDS011;48597;49.030;1.822;2022-08-21T16:26:03;2.95;;;1.20;;
62543;SDS011;48597;49.030;1.822;2022-08-21T16:28:31;2.58;;;1.20;;